Flight Track Log - Related Links

Times and Time Zones

All times are in EDT time to prevent confusion due to time zone crossing. See the KAP17 flight status page for this flight to view local times or setup timezone preferences in your user account.

Time Position Orientation Groundspeed Altitude Reporting Facility
EDT Latitude Longitude Course Direction KTS MPH feet Rate Location/Type
Fri 01:47:51 PM 43.6569 -72.2364 60° Northeast 154 177 3,600  Level Boston Center
Fri 01:48:51 PM 43.6442 -72.1906 111° Southeast 148 170 4,400 750 Climbing Boston Center
Fri 01:49:51 PM 43.6275 -72.1475 118° Southeast 143 165 5,100 650 Climbing Boston Center
Fri 01:50:51 PM 43.6003 -72.1075 133° Southeast 136 157 5,700 450 Climbing Boston Center
Fri 01:51:51 PM 43.5711 -72.0703 137° Southeast 136 157 6,000  Climbing Boston Center
Fri 01:52:51 PM 43.5314 -72.0306 144° Southeast 160 184 5,700 -200 Descending Boston Center
Fri 01:53:51 PM 43.4917 -71.9967 148° Southeast 174 200 5,600 -100 Descending Boston Center
Fri 01:54:51 PM 43.4497 -71.9597 147° Southeast 174 200 5,500  Descending Boston Center
Fri 01:55:51 PM 43.4100 -71.9228 146° Southeast 174 200 5,600  Climbing Boston Center
Fri 01:56:51 PM 43.3661 -71.8861 149° Southeast 174 200 5,500 -50 Descending Boston Center
Fri 01:57:51 PM 43.3306 -71.8550 132° Southeast 169 194 5,500  Level Boston Center
Fri 01:58:51 PM 43.2908 -71.8211 148° Southeast 164 189 5,500 50 Level Boston Center
Fri 01:59:51 PM 43.2550 -71.7872 145° Southeast 164 189 5,600 50 Climbing Boston Center
Fri 02:00:51 PM 43.2131 -71.7478 146° Southeast 164 189 5,600  Level Boston Center
Fri 02:01:51 PM 43.1797 -71.7169 146° Southeast 164 189 5,600 -50 Level Boston Center
Fri 02:02:51 PM 43.1356 -71.6747 145° Southeast 164 189 5,500 -32 Descending Boston Center
Fri 02:04:56 PM 43.0500 -71.6000 147° Southeast 168 193 5,500  Level KA90
Fri 02:05:53 PM 43.0167 -71.5667 144° Southeast 164 189 5,500  Level KA90
Fri 02:06:56 PM 42.9833 -71.5333 144° Southeast 166 191 5,500  Level KA90
Fri 02:07:54 PM 42.9333 -71.5000 154° Southeast 167 192 5,500  Level KA90
Fri 02:09:02 PM 42.9000 -71.4667 144° Southeast 171 197 5,500 -47 Level KA90
Fri 02:10:02 PM 42.8500 -71.4333 154° Southeast 170 196 5,400 -98 Descending KA90
Fri 02:11:05 PM 42.8167 -71.3833 132° Southeast 172 198 5,300 -300 Descending KA90
Fri 02:12:02 PM 42.7667 -71.3667 166° South 182 209 4,800 -410 Descending KA90
Fri 02:13:02 PM 42.7333 -71.3333 144° Southeast 183 211 4,500 -98 Descending KA90
Fri 02:14:05 PM 42.6833 -71.3000 154° Southeast 174 200 4,600 48 Climbing KA90
Fri 02:15:06 PM 42.6333 -71.2667 154° Southeast 168 193 4,600 -47 Level KA90
Fri 02:16:14 PM 42.6000 -71.2333 144° Southeast 164 189 4,500 -48 Descending KA90
Fri 02:17:12 PM 42.5500 -71.2000 154° Southeast 162 186 4,500  Level KA90
Fri 02:18:15 PM 42.5167 -71.1833 160° South 166 191 4,500  Level KA90
Fri 02:19:12 PM 42.4667 -71.1500 154° Southeast 165 190 4,500  Level KA90
Fri 02:20:15 PM 42.4333 -71.1333 160° South 164 189 4,500 -146 Level KA90
Fri 02:21:15 PM 42.3833 -71.1500 194° South 170 196 4,200 -486 Descending KA90
Fri 02:22:06 PM 42.3333 -71.1500 180° South 170 196 3,600 -684 Descending KA90
Fri 02:23:09 PM 42.3000 -71.1167 144° Southeast 167 192 2,900 -709 Descending KA90
Fri 02:24:13 PM 42.3000 -71.0667 90° East 162 186 2,100 -857 Descending KA90
Fri 02:25:15 PM 42.3333 -71.0333 36° Northeast 138 159 1,100 -968 Descending KA90
Fri 02:27:00 PM 42.3500 -71.0000 36° Northeast  Level FlightAware Approximate
Fri 02:34:00 PM 42.3630 -71.0064 36° Northeast  Level Estimated
Fri 02:35:00 PM 42.3630 -71.0064 36° Northeast  Level Estimated

Login

Don't have an account? Register now (free) for customized features, flight alerts, and more!